sensor_id;sensor_type;location;lat;lon;timestamp;temperature;humidity
16267;DHT22;8241;48.786;9.250;2022-09-21T00:01:04;10.00;99.90
16267;DHT22;8241;48.786;9.250;2022-09-21T00:03:31;10.10;99.90
16267;DHT22;8241;48.786;9.250;2022-09-21T00:06:03;10.10;99.90
16267;DHT22;8241;48.786;9.250;2022-09-21T00:09:02;10.00;99.90
16267;DHT22;8241;48.786;9.250;2022-09-21T00:11:31;9.90;99.90
16267;DHT22;8241;48.786;9.250;2022-09-21T00:14:01;9.90;99.90
16267;DHT22;8241;48.786;9.250;2022-09-21T00:16:29;10.00;99.90
16267;DHT22;8241;48.786;9.250;2022-09-21T00:18:57;10.00;99.90
16267;DHT22;8241;48.786;9.250;2022-09-21T00:21:24;9.90;99.90
16267;DHT22;8241;48.786;9.250;2022-09-21T00:24:14;9.90;99.90
16267;DHT22;8241;48.786;9.250;2022-09-21T00:30:26;9.80;99.90
16267;DHT22;8241;48.786;9.250;2022-09-21T00:32:53;9.70;99.90
16267;DHT22;8241;48.786;9.250;2022-09-21T00:35:20;9.70;99.90
16267;DHT22;8241;48.786;9.250;2022-09-21T00:37:47;9.70;99.90
16267;DHT22;8241;48.786;9.250;2022-09-21T00:40:14;9.80;99.90
16267;DHT22;8241;48.786;9.250;2022-09-21T00:42:42;9.80;99.90
16267;DHT22;8241;48.786;9.250;2022-09-21T00:45:11;9.80;99.90
16267;DHT22;8241;48.786;9.250;2022-09-21T00:47:51;9.80;99.90
16267;DHT22;8241;48.786;9.250;2022-09-21T00:50:21;9.80;99.90
16267;DHT22;8241;48.786;9.250;2022-09-21T00:52:52;9.80;99.90
16267;DHT22;8241;48.786;9.250;2022-09-21T00:55:23;9.80;99.90
16267;DHT22;8241;48.786;9.250;2022-09-21T00:57:57;9.80;99.90
16267;DHT22;8241;48.786;9.250;2022-09-21T01:00:28;9.50;99.90
16267;DHT22;8241;48.786;9.250;2022-09-21T01:02:57;9.50;99.90
16267;DHT22;8241;48.786;9.250;2022-09-21T01:05:26;9.40;99.90
16267;DHT22;8241;48.786;9.250;2022-09-21T01:07:54;9.40;99.90
16267;DHT22;8241;48.786;9.250;2022-09-21T01:10:22;9.40;99.90
16267;DHT22;8241;48.786;9.250;2022-09-21T01:13:03;9.30;99.90
16267;DHT22;8241;48.786;9.250;2022-09-21T01:15:42;9.30;99.90
16267;DHT22;8241;48.786;9.250;2022-09-21T01:18:16;9.30;99.90
16267;DHT22;8241;48.786;9.250;2022-09-21T01:21:09;9.20;99.90
16267;DHT22;8241;48.786;9.250;2022-09-21T01:24:07;9.10;99.90
16267;DHT22;8241;48.786;9.250;2022-09-21T01:27:06;9.30;99.90
16267;DHT22;8241;48.786;9.250;2022-09-21T01:29:42;9.30;99.90
16267;DHT22;8241;48.786;9.250;2022-09-21T01:32:14;9.30;99.90
16267;DHT22;8241;48.786;9.250;2022-09-21T01:34:52;9.20;99.90
16267;DHT22;8241;48.786;9.250;2022-09-21T01:37:23;9.20;99.90
16267;DHT22;8241;48.786;9.250;2022-09-21T01:39:55;9.20;99.90
16267;DHT22;8241;48.786;9.250;2022-09-21T01:42:26;9.30;99.90
16267;DHT22;8241;48.786;9.250;2022-09-21T01:44:58;9.20;99.90
16267;DHT22;8241;48.786;9.250;2022-09-21T01:47:37;9.10;99.90
16267;DHT22;8241;48.786;9.250;2022-09-21T01:53:19;9.00;99.90
16267;DHT22;8241;48.786;9.250;2022-09-21T01:55:50;9.00;99.90
16267;DHT22;8241;48.786;9.250;2022-09-21T01:58:22;9.00;99.90
16267;DHT22;8241;48.786;9.250;2022-09-21T02:00:54;9.00;99.90
16267;DHT22;8241;48.786;9.250;2022-09-21T02:03:27;9.00;99.90
16267;DHT22;8241;48.786;9.250;2022-09-21T02:06:05;9.10;99.90
16267;DHT22;8241;48.786;9.250;2022-09-21T02:08:33;9.10;99.90
16267;DHT22;8241;48.786;9.250;2022-09-21T02:14:22;8.90;99.90
16267;DHT22;8241;48.786;9.250;2022-09-21T02:17:00;8.80;99.90
16267;DHT22;8241;48.786;9.250;2022-09-21T02:19:38;8.90;99.90
16267;DHT22;8241;48.786;9.250;2022-09-21T02:22:10;9.00;99.90
16267;DHT22;8241;48.786;9.250;2022-09-21T02:24:40;9.00;99.90
16267;DHT22;8241;48.786;9.250;2022-09-21T02:27:29;8.90;99.90
16267;DHT22;8241;48.786;9.250;2022-09-21T02:30:04;9.00;99.90
16267;DHT22;8241;48.786;9.250;2022-09-21T02:32:39;8.90;99.90
16267;DHT22;8241;48.786;9.250;2022-09-21T02:35:17;8.90;99.90
16267;DHT22;8241;48.786;9.250;2022-09-21T02:37:50;8.90;99.90
16267;DHT22;8241;48.786;9.250;2022-09-21T02:40:25;9.00;99.90
16267;DHT22;8241;48.786;9.250;2022-09-21T02:42:59;8.90;99.90
16267;DHT22;8241;48.786;9.250;2022-09-21T02:45:29;8.90;99.90
16267;DHT22;8241;48.786;9.250;2022-09-21T02:48:02;8.80;99.90
16267;DHT22;8241;48.786;9.250;2022-09-21T02:50:34;8.70;99.90
16267;DHT22;8241;48.786;9.250;2022-09-21T02:53:04;8.60;99.90
16267;DHT22;8241;48.786;9.250;2022-09-21T02:56:01;8.70;99.90
16267;DHT22;8241;48.786;9.250;2022-09-21T02:58:34;8.80;99.90
16267;DHT22;8241;48.786;9.250;2022-09-21T03:01:05;8.70;99.90
16267;DHT22;8241;48.786;9.250;2022-09-21T03:03:42;8.50;99.90
16267;DHT22;8241;48.786;9.250;2022-09-21T03:06:25;8.50;99.90
16267;DHT22;8241;48.786;9.250;2022-09-21T03:08:52;8.40;99.90
16267;DHT22;8241;48.786;9.250;2022-09-21T03:11:29;8.40;99.90
16267;DHT22;8241;48.786;9.250;2022-09-21T03:13:56;8.50;99.90
16267;DHT22;8241;48.786;9.250;2022-09-21T03:16:23;8.60;99.90
16267;DHT22;8241;48.786;9.250;2022-09-21T03:18:52;8.50;99.90
16267;DHT22;8241;48.786;9.250;2022-09-21T03:21:19;8.50;99.90
16267;DHT22;8241;48.786;9.250;2022-09-21T03:23:46;8.50;99.90
16267;DHT22;8241;48.786;9.250;2022-09-21T03:26:13;8.60;99.90
16267;DHT22;8241;48.786;9.250;2022-09-21T03:28:40;8.60;99.90
16267;DHT22;8241;48.786;9.250;2022-09-21T03:31:07;8.60;99.90
16267;DHT22;8241;48.786;9.250;2022-09-21T03:33:34;8.60;99.90
16267;DHT22;8241;48.786;9.250;2022-09-21T03:36:22;8.50;99.90
16267;DHT22;8241;48.786;9.250;2022-09-21T03:38:48;8.40;99.90
16267;DHT22;8241;48.786;9.250;2022-09-21T03:41:16;8.30;99.90
16267;DHT22;8241;48.786;9.250;2022-09-21T03:43:43;8.30;99.90
16267;DHT22;8241;48.786;9.250;2022-09-21T03:46:11;8.30;99.90
16267;DHT22;8241;48.786;9.250;2022-09-21T03:48:38;8.40;99.90
16267;DHT22;8241;48.786;9.250;2022-09-21T03:51:10;8.40;99.90
16267;DHT22;8241;48.786;9.250;2022-09-21T03:53:41;8.40;99.90
16267;DHT22;8241;48.786;9.250;2022-09-21T03:56:08;8.40;99.90
16267;DHT22;8241;48.786;9.250;2022-09-21T03:58:34;8.50;99.90
16267;DHT22;8241;48.786;9.250;2022-09-21T04:01:05;8.40;99.90
16267;DHT22;8241;48.786;9.250;2022-09-21T04:03:32;8.40;99.90
16267;DHT22;8241;48.786;9.250;2022-09-21T04:05:59;8.40;99.90
16267;DHT22;8241;48.786;9.250;2022-09-21T04:08:29;8.40;99.90
16267;DHT22;8241;48.786;9.250;2022-09-21T04:10:58;8.40;99.90
16267;DHT22;8241;48.786;9.250;2022-09-21T04:13:25;8.50;99.90
16267;DHT22;8241;48.786;9.250;2022-09-21T04:16:12;8.50;99.90
16267;DHT22;8241;48.786;9.250;2022-09-21T04:18:39;8.40;99.90
16267;DHT22;8241;48.786;9.250;2022-09-21T04:21:05;8.30;99.90
16267;DHT22;8241;48.786;9.250;2022-09-21T04:23:38;8.40;99.90
16267;DHT22;8241;48.786;9.250;2022-09-21T04:26:23;8.30;99.90
16267;DHT22;8241;48.786;9.250;2022-09-21T04:28:51;8.30;99.90
16267;DHT22;8241;48.786;9.250;2022-09-21T04:31:23;8.30;99.90
16267;DHT22;8241;48.786;9.250;2022-09-21T04:33:59;8.30;99.90
16267;DHT22;8241;48.786;9.250;2022-09-21T04:36:41;8.40;99.90
16267;DHT22;8241;48.786;9.250;2022-09-21T04:39:12;8.30;99.90
16267;DHT22;8241;48.786;9.250;2022-09-21T04:42:10;8.30;99.90
16267;DHT22;8241;48.786;9.250;2022-09-21T04:44:38;8.30;99.90
16267;DHT22;8241;48.786;9.250;2022-09-21T04:47:07;8.10;99.90
16267;DHT22;8241;48.786;9.250;2022-09-21T04:49:34;8.10;99.90
16267;DHT22;8241;48.786;9.250;2022-09-21T04:52:27;8.00;99.90
16267;DHT22;8241;48.786;9.250;2022-09-21T04:55:27;8.10;99.90
16267;DHT22;8241;48.786;9.250;2022-09-21T04:58:28;8.10;99.90
16267;DHT22;8241;48.786;9.250;2022-09-21T05:01:04;8.10;99.90
16267;DHT22;8241;48.786;9.250;2022-09-21T05:03:35;8.20;99.90
16267;DHT22;8241;48.786;9.250;2022-09-21T05:06:02;8.10;99.90
16267;DHT22;8241;48.786;9.250;2022-09-21T05:08:29;8.10;99.90
16267;DHT22;8241;48.786;9.250;2022-09-21T05:11:17;8.20;99.90
16267;DHT22;8241;48.786;9.250;2022-09-21T05:13:46;7.90;99.90
16267;DHT22;8241;48.786;9.250;2022-09-21T05:16:16;7.80;99.90
16267;DHT22;8241;48.786;9.250;2022-09-21T05:18:45;7.80;99.90
16267;DHT22;8241;48.786;9.250;2022-09-21T05:21:15;7.70;99.90
16267;DHT22;8241;48.786;9.250;2022-09-21T05:23:48;7.60;99.90
16267;DHT22;8241;48.786;9.250;2022-09-21T05:26:15;7.70;99.90
16267;DHT22;8241;48.786;9.250;2022-09-21T05:28:42;7.80;99.90
16267;DHT22;8241;48.786;9.250;2022-09-21T05:31:24;7.70;99.90
16267;DHT22;8241;48.786;9.250;2022-09-21T05:34:20;7.70;99.90
16267;DHT22;8241;48.786;9.250;2022-09-21T05:36:56;7.70;99.90
16267;DHT22;8241;48.786;9.250;2022-09-21T05:39:26;7.70;99.90
16267;DHT22;8241;48.786;9.250;2022-09-21T05:41:55;7.80;99.90
16267;DHT22;8241;48.786;9.250;2022-09-21T05:44:25;7.80;99.90
16267;DHT22;8241;48.786;9.250;2022-09-21T05:47:13;7.80;99.90
16267;DHT22;8241;48.786;9.250;2022-09-21T05:50:00;7.80;99.90
16267;DHT22;8241;48.786;9.250;2022-09-21T05:52:46;8.00;99.90
16267;DHT22;8241;48.786;9.250;2022-09-21T05:55:54;7.90;99.90
16267;DHT22;8241;48.786;9.250;2022-09-21T05:58:31;7.90;99.90
16267;DHT22;8241;48.786;9.250;2022-09-21T06:01:19;8.00;99.90
16267;DHT22;8241;48.786;9.250;2022-09-21T06:03:55;8.00;99.90
16267;DHT22;8241;48.786;9.250;2022-09-21T06:06:34;8.10;99.90
16267;DHT22;8241;48.786;9.250;2022-09-21T06:09:01;8.20;99.90
16267;DHT22;8241;48.786;9.250;2022-09-21T06:11:28;8.20;99.90
16267;DHT22;8241;48.786;9.250;2022-09-21T06:14:05;8.30;99.90
16267;DHT22;8241;48.786;9.250;2022-09-21T06:16:43;8.30;99.90
16267;DHT22;8241;48.786;9.250;2022-09-21T06:19:12;8.30;99.90
16267;DHT22;8241;48.786;9.250;2022-09-21T06:21:57;8.20;99.90
16267;DHT22;8241;48.786;9.250;2022-09-21T06:24:24;8.20;99.90
16267;DHT22;8241;48.786;9.250;2022-09-21T06:26:51;8.30;99.90
16267;DHT22;8241;48.786;9.250;2022-09-21T06:32:47;8.30;99.90
16267;DHT22;8241;48.786;9.250;2022-09-21T06:35:41;8.40;99.90
16267;DHT22;8241;48.786;9.250;2022-09-21T06:41:57;8.30;99.90
16267;DHT22;8241;48.786;9.250;2022-09-21T06:44:37;8.40;99.90
16267;DHT22;8241;48.786;9.250;2022-09-21T06:50:20;8.40;99.90
16267;DHT22;8241;48.786;9.250;2022-09-21T06:53:16;8.50;99.90
16267;DHT22;8241;48.786;9.250;2022-09-21T06:55:53;8.60;99.90
16267;DHT22;8241;48.786;9.250;2022-09-21T06:58:21;8.70;99.90
16267;DHT22;8241;48.786;9.250;2022-09-21T07:00:58;8.70;99.90
16267;DHT22;8241;48.786;9.250;2022-09-21T07:03:37;8.90;99.90
16267;DHT22;8241;48.786;9.250;2022-09-21T07:06:41;9.20;99.90
16267;DHT22;8241;48.786;9.250;2022-09-21T07:09:18;9.30;99.90
16267;DHT22;8241;48.786;9.250;2022-09-21T07:14:55;9.90;99.90
16267;DHT22;8241;48.786;9.250;2022-09-21T07:17:22;9.80;99.90
16267;DHT22;8241;48.786;9.250;2022-09-21T07:19:49;10.00;99.90
16267;DHT22;8241;48.786;9.250;2022-09-21T07:22:16;10.00;99.90
16267;DHT22;8241;48.786;9.250;2022-09-21T07:24:44;10.30;99.90
16267;DHT22;8241;48.786;9.250;2022-09-21T07:27:11;10.40;99.90
16267;DHT22;8241;48.786;9.250;2022-09-21T07:29:38;10.30;99.90
16267;DHT22;8241;48.786;9.250;2022-09-21T07:32:05;10.30;99.90
16267;DHT22;8241;48.786;9.250;2022-09-21T07:34:34;10.40;99.90
16267;DHT22;8241;48.786;9.250;2022-09-21T07:37:01;10.30;99.90
16267;DHT22;8241;48.786;9.250;2022-09-21T07:39:28;10.40;99.90
16267;DHT22;8241;48.786;9.250;2022-09-21T07:41:57;10.50;99.90
16267;DHT22;8241;48.786;9.250;2022-09-21T07:44:25;10.80;99.90
16267;DHT22;8241;48.786;9.250;2022-09-21T07:46:52;10.80;99.90
16267;DHT22;8241;48.786;9.250;2022-09-21T07:49:18;10.70;99.90
16267;DHT22;8241;48.786;9.250;2022-09-21T07:51:45;10.70;99.90
16267;DHT22;8241;48.786;9.250;2022-09-21T07:54:27;10.90;99.90
16267;DHT22;8241;48.786;9.250;2022-09-21T07:57:25;11.10;99.90
16267;DHT22;8241;48.786;9.250;2022-09-21T08:00:11;11.00;99.90
16267;DHT22;8241;48.786;9.250;2022-09-21T08:02:38;11.00;99.90
16267;DHT22;8241;48.786;9.250;2022-09-21T08:05:05;11.20;99.90
16267;DHT22;8241;48.786;9.250;2022-09-21T08:07:32;11.30;99.90
16267;DHT22;8241;48.786;9.250;2022-09-21T08:09:59;11.50;99.90
16267;DHT22;8241;48.786;9.250;2022-09-21T08:12:28;11.60;99.90
16267;DHT22;8241;48.786;9.250;2022-09-21T08:14:54;11.60;99.90
16267;DHT22;8241;48.786;9.250;2022-09-21T08:17:21;11.70;99.90
16267;DHT22;8241;48.786;9.250;2022-09-21T08:19:49;11.70;99.90
16267;DHT22;8241;48.786;9.250;2022-09-21T08:22:16;11.80;99.90
16267;DHT22;8241;48.786;9.250;2022-09-21T08:24:43;11.80;99.90
16267;DHT22;8241;48.786;9.250;2022-09-21T08:27:10;11.90;99.90
16267;DHT22;8241;48.786;9.250;2022-09-21T08:29:38;11.90;99.90
16267;DHT22;8241;48.786;9.250;2022-09-21T08:32:07;11.80;99.90
16267;DHT22;8241;48.786;9.250;2022-09-21T08:34:34;11.90;99.90
16267;DHT22;8241;48.786;9.250;2022-09-21T08:37:02;11.90;99.90
16267;DHT22;8241;48.786;9.250;2022-09-21T08:39:29;12.00;99.90
16267;DHT22;8241;48.786;9.250;2022-09-21T08:42:05;11.90;99.90
16267;DHT22;8241;48.786;9.250;2022-09-21T08:44:40;12.00;99.90
16267;DHT22;8241;48.786;9.250;2022-09-21T08:47:12;12.10;99.90
16267;DHT22;8241;48.786;9.250;2022-09-21T08:49:44;12.00;99.90
16267;DHT22;8241;48.786;9.250;2022-09-21T08:52:22;12.00;99.90
16267;DHT22;8241;48.786;9.250;2022-09-21T08:54:54;12.30;99.90
16267;DHT22;8241;48.786;9.250;2022-09-21T08:57:23;12.30;99.90
16267;DHT22;8241;48.786;9.250;2022-09-21T08:59:52;12.40;99.90
16267;DHT22;8241;48.786;9.250;2022-09-21T09:02:43;12.50;99.90
16267;DHT22;8241;48.786;9.250;2022-09-21T09:05:23;12.60;99.90
16267;DHT22;8241;48.786;9.250;2022-09-21T09:11:06;13.00;99.90
16267;DHT22;8241;48.786;9.250;2022-09-21T09:13:52;13.30;99.90
16267;DHT22;8241;48.786;9.250;2022-09-21T09:16:34;14.00;99.90
16267;DHT22;8241;48.786;9.250;2022-09-21T09:19:08;14.60;98.40
16267;DHT22;8241;48.786;9.250;2022-09-21T09:21:40;15.00;98.20
16267;DHT22;8241;48.786;9.250;2022-09-21T09:27:36;16.20;96.00
16267;DHT22;8241;48.786;9.250;2022-09-21T09:35:39;18.20;92.90
16267;DHT22;8241;48.786;9.250;2022-09-21T09:38:15;19.10;91.40
16267;DHT22;8241;48.786;9.250;2022-09-21T09:43:59;20.30;87.50
16267;DHT22;8241;48.786;9.250;2022-09-21T09:46:30;21.30;86.40
16267;DHT22;8241;48.786;9.250;2022-09-21T09:49:12;22.40;82.40
16267;DHT22;8241;48.786;9.250;2022-09-21T09:51:41;24.30;78.40
16267;DHT22;8241;48.786;9.250;2022-09-21T09:54:13;24.90;74.70
16267;DHT22;8241;48.786;9.250;2022-09-21T09:56:40;26.10;72.90
16267;DHT22;8241;48.786;9.250;2022-09-21T09:59:23;26.80;70.90
16267;DHT22;8241;48.786;9.250;2022-09-21T10:01:59;25.60;70.80
16267;DHT22;8241;48.786;9.250;2022-09-21T10:04:26;25.20;72.90
16267;DHT22;8241;48.786;9.250;2022-09-21T10:06:55;24.90;72.10
16267;DHT22;8241;48.786;9.250;2022-09-21T10:09:24;23.60;75.10
16267;DHT22;8241;48.786;9.250;2022-09-21T10:11:54;22.90;76.90
16267;DHT22;8241;48.786;9.250;2022-09-21T10:14:27;22.50;75.90
16267;DHT22;8241;48.786;9.250;2022-09-21T10:16:58;21.10;78.80
16267;DHT22;8241;48.786;9.250;2022-09-21T10:22:47;21.80;78.70
16267;DHT22;8241;48.786;9.250;2022-09-21T10:25:28;24.30;73.20
16267;DHT22;8241;48.786;9.250;2022-09-21T10:27:56;25.60;68.70
16267;DHT22;8241;48.786;9.250;2022-09-21T10:30:34;26.10;65.30
16267;DHT22;8241;48.786;9.250;2022-09-21T10:33:03;23.50;69.60
16267;DHT22;8241;48.786;9.250;2022-09-21T10:35:30;23.40;70.50
16267;DHT22;8241;48.786;9.250;2022-09-21T10:38:09;22.30;72.80
16267;DHT22;8241;48.786;9.250;2022-09-21T10:40:36;22.30;75.10
16267;DHT22;8241;48.786;9.250;2022-09-21T10:43:03;22.10;71.90
16267;DHT22;8241;48.786;9.250;2022-09-21T10:45:30;20.80;75.80
16267;DHT22;8241;48.786;9.250;2022-09-21T10:48:05;19.90;78.90
16267;DHT22;8241;48.786;9.250;2022-09-21T10:50:35;20.80;78.60
16267;DHT22;8241;48.786;9.250;2022-09-21T10:53:12;22.40;74.50
16267;DHT22;8241;48.786;9.250;2022-09-21T10:55:48;22.60;72.60
16267;DHT22;8241;48.786;9.250;2022-09-21T10:58:16;23.00;72.70
16267;DHT22;8241;48.786;9.250;2022-09-21T11:00:45;25.40;69.10
16267;DHT22;8241;48.786;9.250;2022-09-21T11:03:35;26.70;65.60
16267;DHT22;8241;48.786;9.250;2022-09-21T11:06:40;27.00;63.10
16267;DHT22;8241;48.786;9.250;2022-09-21T11:09:15;25.40;66.10
16267;DHT22;8241;48.786;9.250;2022-09-21T11:11:49;24.80;66.90
16267;DHT22;8241;48.786;9.250;2022-09-21T11:14:32;23.70;69.30
16267;DHT22;8241;48.786;9.250;2022-09-21T11:17:08;22.80;72.10
16267;DHT22;8241;48.786;9.250;2022-09-21T11:19:44;21.90;74.60
16267;DHT22;8241;48.786;9.250;2022-09-21T11:22:31;21.10;76.40
16267;DHT22;8241;48.786;9.250;2022-09-21T11:25:09;20.10;79.60
16267;DHT22;8241;48.786;9.250;2022-09-21T11:27:45;19.50;80.50
16267;DHT22;8241;48.786;9.250;2022-09-21T11:30:17;18.90;82.30
16267;DHT22;8241;48.786;9.250;2022-09-21T11:33:03;18.40;83.50
16267;DHT22;8241;48.786;9.250;2022-09-21T11:35:57;18.90;83.60
16267;DHT22;8241;48.786;9.250;2022-09-21T11:38:35;21.50;76.80
16267;DHT22;8241;48.786;9.250;2022-09-21T11:41:31;22.40;74.60
16267;DHT22;8241;48.786;9.250;2022-09-21T11:44:11;23.20;70.90
16267;DHT22;8241;48.786;9.250;2022-09-21T11:46:46;22.50;71.80
16267;DHT22;8241;48.786;9.250;2022-09-21T11:49:44;22.90;73.10
16267;DHT22;8241;48.786;9.250;2022-09-21T11:52:24;22.90;70.60
16267;DHT22;8241;48.786;9.250;2022-09-21T11:55:09;22.00;72.80
16267;DHT22;8241;48.786;9.250;2022-09-21T11:57:55;21.50;73.90
16267;DHT22;8241;48.786;9.250;2022-09-21T12:00:46;20.40;76.20
16267;DHT22;8241;48.786;9.250;2022-09-21T12:06:34;19.00;79.70
16267;DHT22;8241;48.786;9.250;2022-09-21T12:12:21;21.10;78.80
16267;DHT22;8241;48.786;9.250;2022-09-21T12:22:08;26.70;61.20
16267;DHT22;8241;48.786;9.250;2022-09-21T12:24:41;27.60;59.60
16267;DHT22;8241;48.786;9.250;2022-09-21T12:27:22;27.60;59.10
16267;DHT22;8241;48.786;9.250;2022-09-21T12:29:54;27.20;59.60
16267;DHT22;8241;48.786;9.250;2022-09-21T12:32:41;27.10;59.80
16267;DHT22;8241;48.786;9.250;2022-09-21T12:35:23;27.40;59.30
16267;DHT22;8241;48.786;9.250;2022-09-21T12:37:57;27.90;59.00
16267;DHT22;8241;48.786;9.250;2022-09-21T12:40:35;27.60;58.60
16267;DHT22;8241;48.786;9.250;2022-09-21T12:43:15;27.90;59.10
16267;DHT22;8241;48.786;9.250;2022-09-21T12:46:14;27.50;60.00
16267;DHT22;8241;48.786;9.250;2022-09-21T12:48:43;27.40;60.40
16267;DHT22;8241;48.786;9.250;2022-09-21T12:51:17;27.10;59.60
16267;DHT22;8241;48.786;9.250;2022-09-21T12:54:15;26.50;59.40
16267;DHT22;8241;48.786;9.250;2022-09-21T12:57:09;24.90;61.70
16267;DHT22;8241;48.786;9.250;2022-09-21T12:59:45;23.60;64.50
16267;DHT22;8241;48.786;9.250;2022-09-21T13:02:29;22.00;69.40
16267;DHT22;8241;48.786;9.250;2022-09-21T13:05:20;21.30;72.00
16267;DHT22;8241;48.786;9.250;2022-09-21T13:08:01;21.90;72.60
16267;DHT22;8241;48.786;9.250;2022-09-21T13:14:21;25.90;63.10
16267;DHT22;8241;48.786;9.250;2022-09-21T13:20:04;27.10;59.80
16267;DHT22;8241;48.786;9.250;2022-09-21T13:22:33;25.00;62.80
16267;DHT22;8241;48.786;9.250;2022-09-21T13:25:04;23.50;66.00
16267;DHT22;8241;48.786;9.250;2022-09-21T13:34:34;24.70;62.90
16267;DHT22;8241;48.786;9.250;2022-09-21T13:40:33;22.60;69.20
16267;DHT22;8241;48.786;9.250;2022-09-21T13:43:23;23.60;67.90
16267;DHT22;8241;48.786;9.250;2022-09-21T13:45:54;24.90;64.10
16267;DHT22;8241;48.786;9.250;2022-09-21T13:48:24;25.90;62.90
16267;DHT22;8241;48.786;9.250;2022-09-21T13:51:06;26.50;60.20
16267;DHT22;8241;48.786;9.250;2022-09-21T13:53:37;26.00;60.90
16267;DHT22;8241;48.786;9.250;2022-09-21T13:56:18;25.40;61.90
16267;DHT22;8241;48.786;9.250;2022-09-21T14:02:17;24.90;62.50
16267;DHT22;8241;48.786;9.250;2022-09-21T14:08:19;24.80;61.00
16267;DHT22;8241;48.786;9.250;2022-09-21T14:10:50;24.40;63.20
16267;DHT22;8241;48.786;9.250;2022-09-21T14:13:27;24.60;63.00
16267;DHT22;8241;48.786;9.250;2022-09-21T14:16:25;24.80;62.50
16267;DHT22;8241;48.786;9.250;2022-09-21T14:28:36;23.40;64.90
16267;DHT22;8241;48.786;9.250;2022-09-21T14:31:16;21.80;68.60
16267;DHT22;8241;48.786;9.250;2022-09-21T14:33:47;20.80;70.30
16267;DHT22;8241;48.786;9.250;2022-09-21T14:36:19;20.40;71.90
16267;DHT22;8241;48.786;9.250;2022-09-21T14:38:51;20.60;72.30
16267;DHT22;8241;48.786;9.250;2022-09-21T14:41:22;20.70;70.60
16267;DHT22;8241;48.786;9.250;2022-09-21T14:43:52;21.30;68.20
16267;DHT22;8241;48.786;9.250;2022-09-21T14:49:39;21.70;68.30
16267;DHT22;8241;48.786;9.250;2022-09-21T14:52:21;21.30;68.40
16267;DHT22;8241;48.786;9.250;2022-09-21T14:54:58;20.50;70.70
16267;DHT22;8241;48.786;9.250;2022-09-21T15:00:55;20.40;71.70
16267;DHT22;8241;48.786;9.250;2022-09-21T15:03:53;20.30;70.40
16267;DHT22;8241;48.786;9.250;2022-09-21T15:06:27;20.30;70.60
16267;DHT22;8241;48.786;9.250;2022-09-21T15:09:44;20.20;71.20
16267;DHT22;8241;48.786;9.250;2022-09-21T15:12:39;20.20;70.50
16267;DHT22;8241;48.786;9.250;2022-09-21T15:15:29;20.20;71.10
16267;DHT22;8241;48.786;9.250;2022-09-21T15:18:00;19.90;70.60
16267;DHT22;8241;48.786;9.250;2022-09-21T15:20:29;19.70;71.90
16267;DHT22;8241;48.786;9.250;2022-09-21T15:22:58;19.60;71.30
16267;DHT22;8241;48.786;9.250;2022-09-21T15:25:29;19.50;71.40
16267;DHT22;8241;48.786;9.250;2022-09-21T15:27:57;19.50;69.60
16267;DHT22;8241;48.786;9.250;2022-09-21T15:30:44;19.40;69.50
16267;DHT22;8241;48.786;9.250;2022-09-21T15:33:12;19.10;70.40
16267;DHT22;8241;48.786;9.250;2022-09-21T15:35:59;19.10;70.00
16267;DHT22;8241;48.786;9.250;2022-09-21T15:38:28;19.00;70.80
16267;DHT22;8241;48.786;9.250;2022-09-21T15:40:55;18.80;71.20
16267;DHT22;8241;48.786;9.250;2022-09-21T15:43:22;18.80;71.00
16267;DHT22;8241;48.786;9.250;2022-09-21T15:45:51;18.70;71.50
16267;DHT22;8241;48.786;9.250;2022-09-21T15:48:21;18.60;70.80
16267;DHT22;8241;48.786;9.250;2022-09-21T15:50:52;18.60;71.20
16267;DHT22;8241;48.786;9.250;2022-09-21T15:53:24;18.60;70.90
16267;DHT22;8241;48.786;9.250;2022-09-21T15:55:52;18.50;72.30
16267;DHT22;8241;48.786;9.250;2022-09-21T15:58:29;18.50;73.00
16267;DHT22;8241;48.786;9.250;2022-09-21T16:01:08;18.40;73.00
16267;DHT22;8241;48.786;9.250;2022-09-21T16:03:37;18.40;73.30
16267;DHT22;8241;48.786;9.250;2022-09-21T16:06:23;18.30;73.40
16267;DHT22;8241;48.786;9.250;2022-09-21T16:08:52;18.30;72.70
16267;DHT22;8241;48.786;9.250;2022-09-21T16:11:33;18.20;73.00
16267;DHT22;8241;48.786;9.250;2022-09-21T16:14:07;18.10;72.90
16267;DHT22;8241;48.786;9.250;2022-09-21T16:17:23;17.80;74.10
16267;DHT22;8241;48.786;9.250;2022-09-21T16:20:16;17.70;75.50
16267;DHT22;8241;48.786;9.250;2022-09-21T16:22:46;17.70;75.30
16267;DHT22;8241;48.786;9.250;2022-09-21T16:25:34;17.60;76.50
16267;DHT22;8241;48.786;9.250;2022-09-21T16:30:54;17.30;78.20
16267;DHT22;8241;48.786;9.250;2022-09-21T16:33:39;17.20;78.50
16267;DHT22;8241;48.786;9.250;2022-09-21T16:36:40;17.20;79.10
16267;DHT22;8241;48.786;9.250;2022-09-21T16:39:14;17.20;79.50
16267;DHT22;8241;48.786;9.250;2022-09-21T16:41:52;17.20;79.40
16267;DHT22;8241;48.786;9.250;2022-09-21T16:44:27;17.20;79.10
16267;DHT22;8241;48.786;9.250;2022-09-21T16:46:59;17.00;79.30
16267;DHT22;8241;48.786;9.250;2022-09-21T16:49:28;17.10;79.70
16267;DHT22;8241;48.786;9.250;2022-09-21T16:52:10;17.00;80.00
16267;DHT22;8241;48.786;9.250;2022-09-21T16:54:54;16.90;80.20
16267;DHT22;8241;48.786;9.250;2022-09-21T16:57:23;16.80;80.80
16267;DHT22;8241;48.786;9.250;2022-09-21T17:03:03;16.70;81.70
16267;DHT22;8241;48.786;9.250;2022-09-21T17:05:48;16.50;82.50
16267;DHT22;8241;48.786;9.250;2022-09-21T17:08:26;16.50;83.30
16267;DHT22;8241;48.786;9.250;2022-09-21T17:11:11;16.30;83.80
16267;DHT22;8241;48.786;9.250;2022-09-21T17:13:58;16.30;83.70
16267;DHT22;8241;48.786;9.250;2022-09-21T17:16:30;16.20;84.60
16267;DHT22;8241;48.786;9.250;2022-09-21T17:19:04;16.20;85.30
16267;DHT22;8241;48.786;9.250;2022-09-21T17:21:36;16.10;87.80
16267;DHT22;8241;48.786;9.250;2022-09-21T17:24:38;16.00;87.80
16267;DHT22;8241;48.786;9.250;2022-09-21T17:27:29;15.90;88.90
16267;DHT22;8241;48.786;9.250;2022-09-21T17:29:56;15.70;89.90
16267;DHT22;8241;48.786;9.250;2022-09-21T17:32:28;15.70;90.10
16267;DHT22;8241;48.786;9.250;2022-09-21T17:38:56;15.40;90.30
16267;DHT22;8241;48.786;9.250;2022-09-21T17:41:31;15.30;90.30
16267;DHT22;8241;48.786;9.250;2022-09-21T17:44:07;15.20;90.60
16267;DHT22;8241;48.786;9.250;2022-09-21T17:46:45;15.20;91.00
16267;DHT22;8241;48.786;9.250;2022-09-21T17:49:13;15.10;91.30
16267;DHT22;8241;48.786;9.250;2022-09-21T17:51:40;15.00;92.10
16267;DHT22;8241;48.786;9.250;2022-09-21T17:54:27;14.90;91.70
16267;DHT22;8241;48.786;9.250;2022-09-21T17:57:03;14.80;91.60
16267;DHT22;8241;48.786;9.250;2022-09-21T17:59:33;14.80;91.20
16267;DHT22;8241;48.786;9.250;2022-09-21T18:08:35;14.60;91.60
16267;DHT22;8241;48.786;9.250;2022-09-21T18:11:20;14.50;92.10
16267;DHT22;8241;48.786;9.250;2022-09-21T18:14:01;14.40;92.20
16267;DHT22;8241;48.786;9.250;2022-09-21T18:16:34;14.40;92.20
16267;DHT22;8241;48.786;9.250;2022-09-21T18:19:28;14.30;92.60
16267;DHT22;8241;48.786;9.250;2022-09-21T18:22:09;14.30;92.80
16267;DHT22;8241;48.786;9.250;2022-09-21T18:24:40;14.20;92.70
16267;DHT22;8241;48.786;9.250;2022-09-21T18:27:15;14.10;92.70
16267;DHT22;8241;48.786;9.250;2022-09-21T18:29:46;14.10;92.50
16267;DHT22;8241;48.786;9.250;2022-09-21T18:32:27;14.00;92.70
16267;DHT22;8241;48.786;9.250;2022-09-21T18:37:59;14.00;92.30
16267;DHT22;8241;48.786;9.250;2022-09-21T18:40:34;14.00;92.20